Time;durP1;ratioP1;P1;durP2;ratioP2;P2;SDS_P1;SDS_P2;PMS_P1;PMS_P2;Temp;Humidity;BMP_temperature;BMP_pressure;BME280_temperature;BME280_humidity;BME280_pressure;Samples;Min_cycle;Max_cycle;Signal;HPM_P1;HPM_P2
2021/08/29 00:00:11;;;;;;;11.63;5.05;;;;;;;15.59;79.82;102042.88;5036968;28;20037;-60
2021/08/29 00:02:39;;;;;;;11.05;5.13;;;;;;;15.62;79.70;102040.38;5049777;28;20045;-59
2021/08/29 00:05:08;;;;;;;13.88;5.90;;;;;;;15.58;79.91;102033.78;5039536;28;20086;-59
2021/08/29 00:07:35;;;;;;;9.95;5.57;;;;;;;15.57;80.09;102028.56;5033125;28;20034;-59
2021/08/29 00:10:03;;;;;;;12.30;6.45;;;;;;;15.55;80.18;102024.16;5041378;28;20057;-59
2021/08/29 00:12:31;;;;;;;12.55;5.55;;;;;;;15.55;80.34;102034.31;5030506;28;20064;-59
2021/08/29 00:14:59;;;;;;;13.27;5.38;;;;;;;15.51;80.46;102033.22;5028971;28;20091;-59
2021/08/29 00:17:26;;;;;;;12.25;4.55;;;;;;;15.50;80.27;102026.09;5034453;28;20048;-59
2021/08/29 00:19:54;;;;;;;13.10;4.22;;;;;;;15.50;80.36;102021.41;5051375;28;20056;-60
2021/08/29 00:22:22;;;;;;;9.02;3.85;;;;;;;15.52;80.82;102021.97;5051706;28;20048;-59
2021/08/29 00:24:50;;;;;;;10.73;4.25;;;;;;;15.53;80.28;102020.03;5043220;28;20124;-60
2021/08/29 00:27:18;;;;;;;10.13;4.22;;;;;;;15.52;80.54;102021.16;5031137;28;20045;-59
2021/08/29 00:29:45;;;;;;;12.10;3.95;;;;;;;15.52;80.62;102023.91;5048575;28;20124;-60
2021/08/29 00:32:13;;;;;;;9.60;3.75;;;;;;;15.50;80.55;102026.09;5044454;28;20041;-59
2021/08/29 00:34:41;;;;;;;11.93;4.38;;;;;;;15.50;80.88;102023.34;5030543;28;20044;-59
2021/08/29 00:37:09;;;;;;;9.23;4.10;;;;;;;15.50;80.80;102015.91;5029665;28;20038;-58
2021/08/29 00:39:37;;;;;;;11.20;4.15;;;;;;;15.51;80.68;102024.97;5047746;28;20388;-56
2021/08/29 00:42:06;;;;;;;10.45;4.20;;;;;;;15.51;80.91;102019.47;5036961;28;20037;-60
2021/08/29 00:44:36;;;;;;;12.52;4.30;;;;;;;15.53;80.80;102011.78;5050727;28;20512;-60
2021/08/29 00:47:05;;;;;;;10.80;4.40;;;;;;;15.56;81.12;102011.25;5029530;28;20053;-60
2021/08/29 00:49:37;;;;;;;11.88;4.53;;;;;;;15.54;80.59;102011.53;5029722;28;20488;-60
2021/08/29 00:52:05;;;;;;;10.32;4.38;;;;;;;15.54;80.75;102017.03;5047356;28;20124;-59
2021/08/29 00:54:34;;;;;;;8.82;3.92;;;;;;;15.56;81.10;102019.47;5033424;28;20041;-60
2021/08/29 00:57:08;;;;;;;12.20;4.68;;;;;;;15.57;80.71;102012.09;5040108;28;20454;-60
2021/08/29 00:59:41;;;;;;;8.63;4.22;;;;;;;15.57;80.91;102014.84;5026283;28;20045;-60
2021/08/29 01:02:14;;;;;;;11.48;4.22;;;;;;;15.56;81.02;102014.00;5032853;28;20049;-60
2021/08/29 01:05:15;;;;;;;12.93;4.28;;;;;;;15.56;80.92;102011.25;5031604;28;20408;-59
2021/08/29 01:08:15;;;;;;;9.52;4.22;;;;;;;15.59;81.01;102009.91;5036746;28;20404;-60
2021/08/29 01:11:01;;;;;;;9.65;4.22;;;;;;;15.58;81.01;102006.31;4987500;28;20069;-59
2021/08/29 01:13:40;;;;;;;12.00;4.30;;;;;;;15.59;81.16;102010.72;5020977;28;20041;-60
2021/08/29 01:16:11;;;;;;;13.23;4.20;;;;;;;15.56;81.31;102003.00;5050324;28;20049;-59
2021/08/29 01:18:53;;;;;;;12.73;4.43;;;;;;;15.54;81.08;102000.53;5007945;28;20061;-60
2021/08/29 01:21:28;;;;;;;11.77;5.05;;;;;;;15.55;81.19;102001.38;5009466;28;20515;-59
2021/08/29 01:24:01;;;;;;;10.20;4.45;;;;;;;15.54;81.22;102006.03;5033935;28;20060;-59
2021/08/29 01:26:54;;;;;;;11.73;4.75;;;;;;;15.54;81.28;102000.53;5053885;28;20059;-58
2021/08/29 01:29:31;;;;;;;13.73;4.78;;;;;;;15.55;81.31;102006.84;5029230;28;20038;-60
2021/08/29 01:32:06;;;;;;;11.88;5.55;;;;;;;15.56;81.72;102005.75;5023174;28;20053;-59
2021/08/29 01:34:35;;;;;;;12.48;5.40;;;;;;;15.54;81.95;102000.53;5053476;28;20495;-59
2021/08/29 01:37:20;;;;;;;14.18;5.57;;;;;;;15.53;82.04;102003.56;5053872;28;20522;-60
2021/08/29 01:39:50;;;;;;;12.85;4.45;;;;;;;15.51;81.91;101995.59;5046482;28;20140;-59
2021/08/29 01:42:25;;;;;;;16.50;4.85;;;;;;;15.52;82.34;102001.91;5034102;28;20535;-58
2021/08/29 01:44:53;;;;;;;12.13;4.13;;;;;;;15.52;81.75;102001.91;5016026;28;20065;-59
2021/08/29 01:47:22;;;;;;;13.98;4.70;;;;;;;15.52;82.40;101999.16;5015147;28;20111;-60
2021/08/29 01:49:49;;;;;;;12.43;4.40;;;;;;;15.49;82.46;102003.28;5033256;28;20049;-59
2021/08/29 01:52:18;;;;;;;11.07;4.53;;;;;;;15.50;82.41;102001.34;5016307;28;20488;-60
2021/08/29 01:55:05;;;;;;;11.63;4.82;;;;;;;15.50;82.46;102004.94;5032660;28;20029;-59
2021/08/29 01:57:43;;;;;;;11.27;4.50;;;;;;;15.51;82.92;102005.75;5033183;28;20504;-56
2021/08/29 02:00:21;;;;;;;12.02;4.60;;;;;;;15.49;82.56;102005.19;5029747;28;20045;-59
2021/08/29 02:02:48;;;;;;;13.38;5.43;;;;;;;15.50;82.82;102001.34;5015791;28;20139;-59
2021/08/29 02:05:16;;;;;;;12.23;4.53;;;;;;;15.50;82.60;102010.41;5015245;28;20033;-58
2021/08/29 02:07:47;;;;;;;11.90;4.15;;;;;;;15.51;82.90;102008.50;5012125;28;20045;-59
2021/08/29 02:10:32;;;;;;;9.43;4.50;;;;;;;15.51;82.63;102008.50;5018670;28;20492;-59
2021/08/29 02:13:15;;;;;;;13.77;4.95;;;;;;;15.47;83.00;102007.41;5018777;28;20041;-59
2021/08/29 02:15:53;;;;;;;14.50;4.88;;;;;;;15.47;83.16;102010.16;5032386;28;20049;-59
2021/08/29 02:18:22;;;;;;;12.95;4.32;;;;;;;15.47;83.20;102010.97;5031340;28;20049;-60
2021/08/29 02:20:51;;;;;;;10.85;4.57;;;;;;;15.46;83.05;102005.75;5016279;28;20045;-59
2021/08/29 02:23:21;;;;;;;9.98;4.03;;;;;;;15.49;83.20;102003.28;5013258;28;20054;-58
2021/08/29 02:25:50;;;;;;;11.77;4.30;;;;;;;15.51;83.22;102000.25;5009988;28;20048;-59
2021/08/29 02:28:19;;;;;;;11.52;4.40;;;;;;;15.53;83.02;101992.56;5012931;28;20046;-60
2021/08/29 02:30:48;;;;;;;10.82;4.60;;;;;;;15.54;83.01;102005.22;5031388;28;20046;-59
2021/08/29 02:33:17;;;;;;;13.52;4.70;;;;;;;15.55;83.03;102001.38;5011475;28;20446;-59
2021/08/29 02:35:48;;;;;;;12.90;4.60;;;;;;;15.53;83.23;102001.63;5029997;28;20053;-59
2021/08/29 02:38:19;;;;;;;17.92;4.60;;;;;;;15.52;83.26;101994.50;5012964;28;20045;-59
2021/08/29 02:40:49;;;;;;;10.23;4.15;;;;;;;15.52;83.75;102002.75;5030162;28;20049;-59
2021/08/29 02:43:20;;;;;;;13.00;4.55;;;;;;;15.52;83.38;101997.25;5027404;28;20042;-59
2021/08/29 02:45:49;;;;;;;10.50;4.47;;;;;;;15.52;83.94;102008.22;5027481;28;20476;-60
2021/08/29 02:48:24;;;;;;;15.05;4.78;;;;;;;15.50;83.82;102006.84;5016798;28;20037;-60
2021/08/29 02:50:53;;;;;;;9.15;4.20;;;;;;;15.48;83.94;101996.13;5013242;28;20451;-58
2021/08/29 02:53:25;;;;;;;10.18;4.25;;;;;;;15.49;84.07;101997.78;5012824;28;20048;-60
2021/08/29 02:55:55;;;;;;;16.38;4.50;;;;;;;15.49;84.64;102002.44;5028852;28;20037;-59
2021/08/29 02:58:27;;;;;;;11.63;4.32;;;;;;;15.50;84.48;101993.13;5031770;28;20400;-58
2021/08/29 03:01:14;;;;;;;16.05;5.45;;;;;;;15.51;84.67;101995.59;5031680;28;20048;-59
2021/08/29 03:04:21;;;;;;;12.60;4.10;;;;;;;15.49;84.51;101991.44;5031519;28;20555;-59
2021/08/29 03:06:49;;;;;;;10.48;4.45;;;;;;;15.48;84.87;101996.13;5029482;28;20407;-59
2021/08/29 03:09:17;;;;;;;13.30;4.47;;;;;;;15.48;84.75;101989.81;5030987;28;20049;-60
2021/08/29 03:11:50;;;;;;;11.93;4.38;;;;;;;15.49;84.65;101996.94;5031505;28;20038;-60
2021/08/29 03:14:39;;;;;;;17.58;4.80;;;;;;;15.48;84.91;101981.56;5029546;28;20049;-57
2021/08/29 03:17:08;;;;;;;15.70;5.40;;;;;;;15.47;84.42;101982.69;5025794;28;20053;-60
2021/08/29 03:19:44;;;;;;;11.95;4.30;;;;;;;15.44;84.39;101983.22;5030750;28;20451;-60
2021/08/29 03:22:28;;;;;;;16.33;4.93;;;;;;;15.44;84.54;101983.22;5027402;28;20062;-60
2021/08/29 03:24:58;;;;;;;13.05;4.72;;;;;;;15.44;84.48;101974.97;5010691;28;20081;-59
2021/08/29 03:27:26;;;;;;;11.77;4.65;;;;;;;15.41;83.94;101978.28;5031296;28;20087;-59
2021/08/29 03:29:53;;;;;;;11.23;4.38;;;;;;;15.39;84.24;101980.47;5030267;28;20041;-59
2021/08/29 03:32:21;;;;;;;14.30;4.63;;;;;;;15.39;84.07;101975.78;5031681;28;20045;-60
2021/08/29 03:34:51;;;;;;;11.80;4.40;;;;;;;15.39;83.84;101974.97;5014261;28;20049;-60
2021/08/29 03:37:21;;;;;;;11.70;4.43;;;;;;;15.41;83.82;101970.84;5031563;28;20033;-60
2021/08/29 03:39:50;;;;;;;12.60;4.65;;;;;;;15.44;83.65;101973.06;5030598;28;20084;-58
2021/08/29 03:42:19;;;;;;;15.07;4.90;;;;;;;15.46;83.86;101973.59;5013098;28;20049;-59
2021/08/29 03:44:53;;;;;;;16.27;4.85;;;;;;;15.45;83.11;101968.41;5031054;28;20063;-59
2021/08/29 03:47:21;;;;;;;13.38;4.60;;;;;;;15.45;82.74;101966.47;5031487;28;20447;-61
2021/08/29 03:49:49;;;;;;;11.75;4.50;;;;;;;15.44;82.28;101962.09;5029232;28;20087;-58
2021/08/29 03:52:21;;;;;;;12.52;4.95;;;;;;;15.42;82.47;101963.47;5028805;28;20041;-60
2021/08/29 03:55:15;;;;;;;10.85;4.47;;;;;;;15.43;82.26;101962.34;5023039;28;20054;-59
2021/08/29 03:57:44;;;;;;;16.17;5.00;;;;;;;15.43;82.53;101965.09;5031180;28;20060;-58
2021/08/29 04:00:12;;;;;;;15.82;4.55;;;;;;;15.43;82.29;101954.09;5013856;28;20521;-58
2021/08/29 04:02:43;;;;;;;13.18;4.35;;;;;;;15.43;82.18;101956.84;5031310;28;20490;-60
2021/08/29 04:05:28;;;;;;;11.93;5.03;;;;;;;15.40;81.80;101946.41;5029573;28;20052;-59
2021/08/29 04:07:58;;;;;;;11.57;4.43;;;;;;;15.42;81.72;101955.22;5031002;28;20049;-60
2021/08/29 04:10:26;;;;;;;12.95;4.47;;;;;;;15.42;81.80;101953.28;5032324;28;20041;-61
2021/08/29 04:13:15;;;;;;;11.75;4.68;;;;;;;15.43;81.43;101948.63;5015041;28;20056;-60
2021/08/29 04:16:12;;;;;;;13.82;4.80;;;;;;;15.43;81.18;101949.44;5030353;28;20381;-59
2021/08/29 04:19:03;;;;;;;9.88;4.15;;;;;;;15.44;81.22;101950.25;5003869;28;20056;-59
2021/08/29 04:21:55;;;;;;;9.05;4.80;;;;;;;15.44;81.26;101958.50;5017576;28;20046;-59
2021/08/29 04:24:43;;;;;;;10.80;4.38;;;;;;;15.45;81.15;101957.41;5028490;28;20132;-60
2021/08/29 04:27:31;;;;;;;13.35;4.68;;;;;;;15.45;81.21;101958.22;5028442;28;20120;-60
2021/08/29 04:30:20;;;;;;;12.52;4.47;;;;;;;15.45;81.47;101946.44;5028497;28;20056;-60
2021/08/29 04:33:07;;;;;;;12.77;4.95;;;;;;;15.44;81.20;101948.34;5028724;28;20046;-60
2021/08/29 04:36:19;;;;;;;14.00;4.88;;;;;;;15.42;81.11;101952.47;5019292;28;20068;-60
2021/08/29 04:39:08;;;;;;;10.55;4.85;;;;;;;15.40;81.29;101954.66;5029420;28;20531;-60
2021/08/29 04:41:39;;;;;;;15.15;4.85;;;;;;;15.40;81.26;101949.97;5013037;28;20044;-60
2021/08/29 04:44:10;;;;;;;12.52;4.70;;;;;;;15.39;81.65;101942.00;5008950;28;20088;-60
2021/08/29 04:46:39;;;;;;;10.45;5.07;;;;;;;15.38;81.33;101946.69;5004579;28;20145;-61
2021/08/29 04:49:09;;;;;;;10.43;4.40;;;;;;;15.39;81.58;101936.50;5027566;28;20156;-59
2021/08/29 04:51:37;;;;;;;12.68;4.72;;;;;;;15.40;81.83;101943.69;5022427;28;20045;-59
2021/08/29 04:54:06;;;;;;;13.40;5.07;;;;;;;15.41;81.68;101946.13;5010072;28;20057;-58
2021/08/29 04:56:35;;;;;;;13.20;5.05;;;;;;;15.41;81.54;101939.81;5024625;28;20180;-60
2021/08/29 04:59:05;;;;;;;13.90;4.70;;;;;;;15.42;81.75;101941.50;5005549;28;20054;-60
2021/08/29 05:01:33;;;;;;;11.07;4.82;;;;;;;15.41;81.96;101940.63;5014659;28;20057;-60
2021/08/29 05:04:01;;;;;;;10.75;4.68;;;;;;;15.40;81.84;101938.19;5033265;28;20420;-60
2021/08/29 05:06:28;;;;;;;11.82;5.05;;;;;;;15.39;82.04;101942.81;5016431;28;20488;-59
2021/08/29 05:08:56;;;;;;;16.85;5.32;;;;;;;15.40;82.41;101943.69;5033025;28;20092;-61
2021/08/29 05:11:25;;;;;;;12.60;4.97;;;;;;;15.40;82.53;101949.16;5017628;28;20120;-60
2021/08/29 05:13:52;;;;;;;9.23;4.80;;;;;;;15.38;82.26;101946.69;5029967;28;20080;-62
2021/08/29 05:16:20;;;;;;;12.02;5.03;;;;;;;15.37;82.86;101946.94;5034299;28;20037;-58
2021/08/29 05:18:48;;;;;;;11.07;4.68;;;;;;;15.37;82.51;101949.69;5032351;28;20057;-60
2021/08/29 05:21:19;;;;;;;11.68;4.97;;;;;;;15.38;82.63;101951.34;5043241;28;20435;-59
2021/08/29 05:24:06;;;;;;;10.93;4.53;;;;;;;15.40;82.73;101954.66;5024428;28;20037;-60
2021/08/29 05:26:54;;;;;;;10.38;4.25;;;;;;;15.39;83.28;101942.81;5037393;28;20049;-60
2021/08/29 05:29:23;;;;;;;11.27;4.60;;;;;;;15.40;83.35;101946.41;5023970;28;20061;-59
2021/08/29 05:31:53;;;;;;;11.25;4.78;;;;;;;15.37;83.38;101945.03;5041868;28;20049;-60
2021/08/29 05:34:29;;;;;;;11.85;5.03;;;;;;;15.37;83.25;101955.19;5032688;28;20128;-62
2021/08/29 05:36:58;;;;;;;11.43;4.75;;;;;;;15.36;83.57;101950.81;5032121;28;20041;-53
2021/08/29 05:39:28;;;;;;;14.95;5.00;;;;;;;15.34;83.80;101951.91;5042396;28;20049;-60
2021/08/29 05:41:55;;;;;;;10.32;4.60;;;;;;;15.34;83.97;101951.91;5033547;28;20053;-60
2021/08/29 05:44:44;;;;;;;13.82;4.80;;;;;;;15.33;84.37;101954.91;5028585;28;20139;-60
2021/08/29 05:47:14;;;;;;;10.88;5.28;;;;;;;15.33;84.69;101949.44;5036334;28;20396;-62
2021/08/29 05:49:41;;;;;;;11.80;4.85;;;;;;;15.32;84.42;101942.28;5042620;28;20046;-62
2021/08/29 05:52:09;;;;;;;11.20;4.63;;;;;;;15.33;84.61;101949.44;5030356;28;20136;-61
2021/08/29 05:54:37;;;;;;;10.30;4.80;;;;;;;15.32;84.87;101951.34;5031197;28;20057;-62
2021/08/29 05:57:05;;;;;;;9.57;4.45;;;;;;;15.32;84.88;101947.75;5033329;28;20080;-60
2021/08/29 05:59:33;;;;;;;12.52;4.68;;;;;;;15.31;85.17;101946.13;5029921;28;20046;-62
2021/08/29 06:02:01;;;;;;;11.43;4.63;;;;;;;15.31;85.74;101946.13;5032423;28;20055;-58
2021/08/29 06:04:29;;;;;;;11.38;4.75;;;;;;;15.33;85.31;101955.75;5012280;28;20046;-60
2021/08/29 06:07:08;;;;;;;14.95;5.22;;;;;;;15.34;85.70;101946.41;5032173;28;20042;-61
2021/08/29 06:09:37;;;;;;;10.65;4.50;;;;;;;15.37;85.54;101952.44;5030207;28;20468;-58
2021/08/29 06:12:05;;;;;;;12.43;5.30;;;;;;;15.38;85.57;101949.44;5031676;28;20037;-57
2021/08/29 06:14:32;;;;;;;13.85;4.70;;;;;;;15.41;86.13;101950.81;5032960;28;20045;-60
2021/08/29 06:17:02;;;;;;;11.05;4.45;;;;;;;15.41;86.30;101945.31;5030877;28;20052;-61
2021/08/29 06:19:32;;;;;;;11.70;4.53;;;;;;;15.41;86.04;101945.31;5033285;28;20046;-60
2021/08/29 06:22:00;;;;;;;12.73;4.85;;;;;;;15.41;86.34;101950.81;5033864;28;20053;-62
2021/08/29 06:24:30;;;;;;;14.10;4.60;;;;;;;15.43;86.31;101951.34;5033146;28;20057;-61
2021/08/29 06:27:00;;;;;;;11.88;4.55;;;;;;;15.44;86.55;101944.75;5031979;28;20045;-62
2021/08/29 06:29:46;;;;;;;;;;;;;;;15.46;86.61;101950.81;5035693;28;20050;-61
2021/08/29 06:32:49;;;;;;;13.77;4.28;;;;;;;15.45;86.96;101946.44;5008521;28;19952;-60
2021/08/29 06:35:24;;;;;;;16.55;4.78;;;;;;;15.48;86.78;101946.69;4995037;28;20050;-61
2021/08/29 06:38:02;;;;;;;11.18;4.40;;;;;;;15.47;86.80;101944.22;4992096;28;20053;-61
2021/08/29 06:40:30;;;;;;;15.90;5.15;;;;;;;15.49;87.01;101937.38;4990775;28;20098;-62
2021/08/29 06:42:58;;;;;;;11.07;4.95;;;;;;;15.50;86.92;101943.69;5002795;28;20081;-60
2021/08/29 06:45:56;;;;;;;12.50;4.53;;;;;;;15.49;87.25;101942.00;4968414;28;20417;-63
2021/08/29 06:48:42;;;;;;;13.35;4.60;;;;;;;15.48;87.51;101929.38;4973028;28;20193;-59
2021/08/29 06:51:10;;;;;;;13.43;4.25;;;;;;;15.47;87.32;101928.56;4970303;28;20207;-60
2021/08/29 06:54:15;;;;;;;12.80;4.53;;;;;;;15.47;87.53;101925.81;4934673;29;20057;-58
2021/08/29 06:57:02;;;;;;;15.43;4.40;;;;;;;15.48;87.85;101937.63;4929037;29;20138;-60
2021/08/29 06:59:29;;;;;;;14.85;5.40;;;;;;;15.47;87.50;101931.31;4915900;29;20064;-59
2021/08/29 07:01:58;;;;;;;14.65;5.00;;;;;;;15.47;87.94;101928.56;4932098;29;20083;-61
2021/08/29 07:04:26;;;;;;;14.38;5.22;;;;;;;15.47;87.53;101927.75;4923985;29;20047;-60
2021/08/29 07:06:59;;;;;;;15.48;4.57;;;;;;;15.46;87.93;101924.16;4911618;29;20425;-57
2021/08/29 07:09:45;;;;;;;;;;;;;;;15.48;87.80;101923.91;4952080;28;20070;-57
2021/08/29 07:12:13;;;;;;;13.35;4.53;;;;;;;15.48;87.98;101924.72;4944029;29;19938;-57
2021/08/29 07:14:59;;;;;;;16.95;4.97;;;;;;;15.48;87.75;101918.41;4954175;28;20039;-57
2021/08/29 07:17:28;;;;;;;12.85;4.25;;;;;;;15.48;87.89;101919.22;4938780;29;20495;-56
2021/08/29 07:19:56;;;;;;;14.82;4.80;;;;;;;15.49;88.05;101909.06;4935785;28;20055;-58
2021/08/29 07:22:59;;;;;;;13.32;4.65;;;;;;;15.48;88.22;101910.16;4966392;28;20047;-59
2021/08/29 07:25:45;;;;;;;11.77;4.28;;;;;;;15.49;88.08;101911.78;5019724;28;20049;-58
2021/08/29 07:28:35;;;;;;;12.48;4.15;;;;;;;15.51;88.27;101907.72;5040353;28;20053;-59
2021/08/29 07:31:21;;;;;;;16.10;5.18;;;;;;;15.50;88.48;101906.03;5035821;28;20049;-60
2021/08/29 07:33:49;;;;;;;16.98;4.95;;;;;;;15.49;88.10;101911.78;5041462;28;20064;-59
2021/08/29 07:36:33;;;;;;;17.88;4.95;;;;;;;15.53;88.35;101910.16;5036302;28;20030;-60
2021/08/29 07:39:07;;;;;;;15.25;4.53;;;;;;;15.56;87.99;101912.34;5044495;28;20033;-58
2021/08/29 07:41:35;;;;;;;18.40;5.13;;;;;;;15.57;88.36;101910.44;5039141;28;20049;-58
2021/08/29 07:44:03;;;;;;;16.83;5.18;;;;;;;15.59;88.20;101908.25;5031125;28;20488;-59
2021/08/29 07:46:31;;;;;;;15.45;4.75;;;;;;;15.59;87.86;101909.06;5015307;28;20046;-60
2021/08/29 07:48:59;;;;;;;15.48;4.53;;;;;;;15.60;87.74;101916.19;5030029;28;20077;-59
2021/08/29 07:51:32;;;;;;;15.48;4.28;;;;;;;15.61;87.65;101926.13;5030734;28;20049;-59
2021/08/29 07:54:38;;;;;;;16.17;4.30;;;;;;;15.59;87.75;101917.31;5028096;28;20038;-58
2021/08/29 07:57:32;;;;;;;14.18;4.53;;;;;;;15.62;87.57;101914.00;5022200;28;20045;-59
2021/08/29 08:00:11;;;;;;;14.00;4.57;;;;;;;15.62;87.29;101914.00;5001687;28;20446;-59
2021/08/29 08:02:47;;;;;;;14.90;4.97;;;;;;;15.65;87.36;101923.63;5008560;28;20045;-59
2021/08/29 08:05:50;;;;;;;16.58;4.20;;;;;;;15.64;87.09;101917.31;5027399;28;21002;-58
2021/08/29 08:08:54;;;;;;;15.38;4.68;;;;;;;15.64;86.69;101928.31;5028049;28;20045;-59
2021/08/29 08:11:41;;;;;;;18.30;4.97;;;;;;;15.62;86.65;101915.94;5028876;28;20041;-59
2021/08/29 08:14:10;;;;;;;13.23;4.47;;;;;;;15.62;86.55;101927.75;5010061;28;20566;-59
2021/08/29 08:16:38;;;;;;;19.20;5.03;;;;;;;15.63;86.24;101925.81;5027959;28;20065;-59
2021/08/29 08:19:18;;;;;;;14.93;4.40;;;;;;;15.61;85.97;101928.84;5002684;28;20570;-59
2021/08/29 08:21:47;;;;;;;14.20;4.32;;;;;;;15.61;86.22;101917.88;5009790;28;20076;-59
2021/08/29 08:24:34;;;;;;;13.35;4.70;;;;;;;15.61;86.42;101922.50;5029818;28;20188;-59
2021/08/29 08:27:20;;;;;;;15.55;4.65;;;;;;;15.60;86.19;101913.47;5016230;28;20124;-59
2021/08/29 08:30:07;;;;;;;17.83;4.70;;;;;;;15.60;86.42;101932.69;5026710;28;20401;-59
2021/08/29 08:32:55;;;;;;;12.25;4.25;;;;;;;15.58;86.12;101923.06;5022616;28;20570;-60
2021/08/29 08:35:43;;;;;;;21.10;4.75;;;;;;;15.57;86.14;101922.25;5017213;28;20038;-59
2021/08/29 08:38:23;;;;;;;14.50;3.80;;;;;;;15.58;86.14;101926.63;5017352;28;20124;-58
2021/08/29 08:40:57;;;;;;;14.75;4.53;;;;;;;15.60;86.58;101929.13;5022911;28;20100;-60
2021/08/29 08:43:45;;;;;;;20.25;5.55;;;;;;;15.59;86.56;101931.06;5033051;28;20053;-59
2021/08/29 08:46:32;;;;;;;18.42;5.13;;;;;;;15.60;86.50;101938.19;5034648;28;20156;-59
2021/08/29 08:49:19;;;;;;;13.05;3.95;;;;;;;15.60;86.39;101921.69;5034466;28;20041;-59
2021/08/29 08:52:12;;;;;;;12.55;4.18;;;;;;;15.58;86.85;101917.56;5033035;28;20654;-57
2021/08/29 08:55:00;;;;;;;14.73;4.43;;;;;;;15.56;87.34;101942.56;5031751;28;20038;-58
2021/08/29 08:57:47;;;;;;;18.40;5.10;;;;;;;15.55;87.52;101925.25;5032076;28;20508;-58
2021/08/29 09:00:45;;;;;;;18.33;4.43;;;;;;;15.60;88.08;101931.88;5032971;28;20129;-59
2021/08/29 09:03:39;;;;;;;12.90;4.28;;;;;;;15.58;87.76;101921.13;5016600;28;20069;-58
2021/08/29 09:06:18;;;;;;;17.48;4.53;;;;;;;15.58;87.81;101923.06;5001854;28;20492;-59
2021/08/29 09:08:46;;;;;;;13.88;4.05;;;;;;;15.60;88.11;101918.13;5032189;28;20051;-58
2021/08/29 09:11:35;;;;;;;17.23;5.05;;;;;;;15.57;88.55;101915.94;5016467;28;20643;-61
2021/08/29 09:14:03;;;;;;;13.70;4.95;;;;;;;15.57;89.25;101926.94;5016730;28;21061;-64
2021/08/29 09:16:31;;;;;;;17.55;5.05;;;;;;;15.55;89.87;101919.78;5031321;28;20480;-63
2021/08/29 09:19:08;;;;;;;15.60;4.82;;;;;;;15.53;89.97;101918.41;4998175;28;20468;-64
2021/08/29 09:21:40;;;;;;;14.80;5.05;;;;;;;15.49;90.81;101929.13;5017979;28;20054;-59
2021/08/29 09:24:20;;;;;;;17.00;5.53;;;;;;;15.45;90.96;101929.94;5016489;28;20049;-62
2021/08/29 09:27:06;;;;;;;19.13;5.10;;;;;;;15.40;91.21;101919.78;5021873;28;20049;-62
2021/08/29 09:29:50;;;;;;;14.82;5.15;;;;;;;15.42;91.77;101922.25;5001237;28;20504;-62
2021/08/29 09:32:22;;;;;;;16.10;5.15;;;;;;;15.43;92.06;101921.16;5014046;28;20116;-62
2021/08/29 09:35:03;;;;;;;16.23;5.55;;;;;;;15.42;91.86;101925.81;5015338;28;20056;-63
2021/08/29 09:37:50;;;;;;;17.77;5.05;;;;;;;15.39;92.67;101920.03;5022233;28;20287;-62
2021/08/29 09:40:37;;;;;;;14.57;4.75;;;;;;;15.37;93.13;101927.72;5034240;28;20037;-62
2021/08/29 09:43:15;;;;;;;12.73;4.63;;;;;;;15.37;93.15;101924.97;5030735;28;20045;-62
2021/08/29 09:45:46;;;;;;;16.00;4.45;;;;;;;15.37;93.63;101927.72;5032505;28;20087;-62
2021/08/29 09:48:33;;;;;;;15.02;4.40;;;;;;;15.39;93.62;101929.09;5033507;28;20072;-62
2021/08/29 09:51:13;;;;;;;14.50;5.47;;;;;;;15.38;93.65;101934.88;5016797;28;20045;-62
2021/08/29 09:53:55;;;;;;;14.43;4.88;;;;;;;15.37;94.07;101928.56;5032698;28;20045;-62
2021/08/29 09:56:52;;;;;;;14.02;4.53;;;;;;;15.32;94.41;101926.63;4996066;28;20060;-62
2021/08/29 09:59:50;;;;;;;14.07;4.40;;;;;;;15.34;94.87;101921.72;4934386;29;20055;-62
2021/08/29 10:02:27;;;;;;;15.90;4.60;;;;;;;15.36;94.95;101926.09;4936556;29;20052;-62
2021/08/29 10:05:18;;;;;;;14.43;4.63;;;;;;;15.32;94.91;101932.13;4929846;29;20055;-62
2021/08/29 10:07:58;;;;;;;10.85;3.83;;;;;;;15.32;95.04;101925.78;4923631;29;20056;-62
2021/08/29 10:10:31;;;;;;;14.15;4.93;;;;;;;15.28;95.07;101914.53;4919143;29;20125;-62
2021/08/29 10:13:04;;;;;;;14.40;4.57;;;;;;;15.30;95.30;101915.09;4946348;29;20051;-62
2021/08/29 10:15:35;;;;;;;12.50;4.10;;;;;;;15.30;95.75;101900.56;4944011;29;20079;-62
2021/08/29 10:18:22;;;;;;;13.05;4.63;;;;;;;15.31;96.04;101902.19;4947046;29;20047;-62
2021/08/29 10:21:13;;;;;;;12.73;4.80;;;;;;;15.34;96.12;101907.13;4937331;29;20057;-62
2021/08/29 10:23:48;;;;;;;12.65;4.28;;;;;;;15.32;96.10;101898.34;4949980;29;20110;-62
2021/08/29 10:26:18;;;;;;;14.20;4.78;;;;;;;15.33;96.37;101900.00;4926991;29;20463;-61
2021/08/29 10:29:22;;;;;;;13.48;4.47;;;;;;;15.36;96.10;101890.38;4934284;29;20164;-62
2021/08/29 10:32:18;;;;;;;14.10;4.72;;;;;;;15.39;96.22;101889.84;4934356;29;20044;-59
2021/08/29 10:35:07;;;;;;;15.27;4.90;;;;;;;15.40;96.43;101888.75;4953650;28;20121;-62
2021/08/29 10:37:41;;;;;;;13.70;4.90;;;;;;;15.40;96.01;101891.50;5003008;28;20497;-63
2021/08/29 10:40:28;;;;;;;13.35;4.72;;;;;;;15.40;95.69;101895.06;5029003;28;20120;-62
2021/08/29 10:43:16;;;;;;;15.32;4.63;;;;;;;15.40;95.83;101883.25;5032083;28;20053;-62
2021/08/29 10:46:03;;;;;;;15.98;4.78;;;;;;;15.42;95.71;101886.56;5026490;28;20047;-62
2021/08/29 10:49:09;;;;;;;12.50;4.65;;;;;;;15.46;95.87;101882.13;5014659;28;20181;-63
2021/08/29 10:51:42;;;;;;;19.20;5.90;;;;;;;15.45;95.77;101886.81;4982726;28;20579;-62
2021/08/29 10:54:14;;;;;;;16.80;4.38;;;;;;;15.46;95.85;101890.38;5006090;28;20140;-60
2021/08/29 10:56:47;;;;;;;17.38;5.07;;;;;;;15.44;94.80;101876.09;5003320;28;20558;-62
2021/08/29 10:59:22;;;;;;;15.32;5.28;;;;;;;15.44;95.62;101884.34;4994831;28;20045;-62
2021/08/29 11:02:09;;;;;;;19.20;5.47;;;;;;;15.41;95.34;101884.91;4997309;28;20077;-62
2021/08/29 11:04:56;;;;;;;15.07;4.33;;;;;;;15.37;95.76;101881.03;5023203;28;20037;-62
2021/08/29 11:07:39;;;;;;;15.57;4.78;;;;;;;15.38;96.05;101879.97;4998805;28;20363;-62
2021/08/29 11:10:08;;;;;;;16.73;5.68;;;;;;;15.32;95.94;101877.22;4999223;28;20081;-62
2021/08/29 11:12:38;;;;;;;18.58;5.00;;;;;;;15.32;96.89;101873.63;4983824;28;20045;-60
2021/08/29 11:15:14;;;;;;;13.93;4.68;;;;;;;15.36;97.40;101868.41;4357704;28;10001798;-63
2021/08/29 11:18:01;;;;;;;14.50;4.07;;;;;;;15.38;97.14;101879.97;5003222;28;20262;-62
2021/08/29 11:20:57;;;;;;;14.73;4.20;;;;;;;15.38;97.10;101868.97;5018585;28;20805;-62
2021/08/29 11:23:44;;;;;;;15.35;4.55;;;;;;;15.38;97.74;101871.72;5030738;28;20052;-59
2021/08/29 11:26:35;;;;;;;14.85;5.00;;;;;;;15.37;97.43;101872.81;5029078;28;20044;-62
2021/08/29 11:29:41;;;;;;;11.10;4.05;;;;;;;15.36;97.86;101871.16;5028109;28;20517;-61
2021/08/29 11:32:33;;;;;;;15.00;5.00;;;;;;;15.40;98.09;101872.28;5013216;28;20049;-59
2021/08/29 11:35:09;;;;;;;16.17;5.20;;;;;;;15.39;97.57;101876.09;5011352;28;20050;-62
2021/08/29 11:38:04;;;;;;;16.17;4.80;;;;;;;15.39;97.56;101876.09;5015878;28;20057;-62
2021/08/29 11:40:53;;;;;;;13.82;4.78;;;;;;;15.40;97.63;101877.75;5008896;28;20120;-62
2021/08/29 11:43:31;;;;;;;13.23;4.13;;;;;;;15.37;97.32;101867.31;4995296;28;20080;-61
2021/08/29 11:46:12;;;;;;;;;;;;;;;15.37;97.73;101865.41;5019995;28;20045;-62
2021/08/29 11:49:03;;;;;;;12.02;4.15;;;;;;;15.36;97.52;101860.19;5003571;28;19925;-62
2021/08/29 11:51:38;;;;;;;16.77;4.90;;;;;;;15.38;97.86;101868.97;4993819;28;20075;-60
2021/08/29 11:54:19;;;;;;;14.60;5.07;;;;;;;15.38;97.98;101861.56;5006686;28;20181;-62
2021/08/29 11:56:57;;;;;;;18.95;5.30;;;;;;;15.40;97.95;101859.34;5010720;28;20115;-62
2021/08/29 11:59:27;;;;;;;15.25;4.03;;;;;;;15.42;98.40;101865.41;5012452;28;20049;-61
2021/08/29 12:01:57;;;;;;;12.45;4.32;;;;;;;15.41;98.26;101858.25;5009461;28;20034;-62
2021/08/29 12:04:28;;;;;;;13.25;4.30;;;;;;;15.42;98.15;101850.84;5017197;28;20053;-60